• Join FlightAware (Why Join?)
  • Login
  • US Flag 
07:38AM EDT


 

Airport Tracker/Info


-or-


 

Live Flight TrackerFlight Track Log ✈ N569SC ✈ 03-May-2013 ✈ KJVL - KPTK

Flight Track Log - Related Links

Times and Time Zones

All times are in EDT time to prevent confusion due to time zone crossing. See the N569SC flight status page for this flight to view local times or setup timezone preferences in your user account.

Time Position Orientation Groundspeed Altitude Reporting Facility
EDT Latitude Longitude Course Direction KTS MPH feet Rate Location/Type
08:55AM 42.6575 -89.0667 65° Northeast 210 242 3,100  Level Chicago Center
08:56AM 42.6858 -88.9853 65° Northeast 294 338 6,500 3,660 Climbing Chicago Center
08:57AM 42.6872 -88.8808 89° East 282 325 10,700 3,780 Climbing Chicago Center
08:58AM 42.6903 -88.7667 88° East 301 346 14,300 3,360 Climbing Chicago Center
08:59AM 42.6939 -88.6475 88° East 314 361 17,700 2,940 Climbing Chicago Center
09:00AM 42.6981 -88.5236 87° East 325 374 20,400 2,580 Climbing Chicago Center
09:01AM 42.7028 -88.3664 88° East 351 404 23,100 2,340 Climbing Chicago Center
09:02AM 42.7169 -88.2217 82° East 384 442 25,300 2,280 Climbing Chicago Center
09:03AM 42.7447 -88.0769 75° East 395 455 27,800 2,400 Climbing Chicago Center
09:04AM 42.7719 -87.9308 76° East 399 459 30,300 1,560 Climbing Chicago Center
09:05AM 42.7989 -87.7819 76° East 404 465 31,000 300 Climbing Chicago Center
09:06AM 42.8281 -87.6267 76° East 419 482 31,000  Level Chicago Center
09:07AM 42.8589 -87.4433 77° East 425 489 31,000  Level Chicago Center
09:08AM 42.8814 -87.2997 78° East 422 486 31,000  Level Chicago Center
09:09AM 42.8903 -87.1439 85° East 407 468 31,000  Level Chicago Center
09:10AM 42.8806 -86.9919 95° East 405 466 31,000  Level Chicago Center
09:11AM 42.8692 -86.8081 95° East 406 467 31,000  Level Chicago Center
09:12AM 42.8597 -86.6550 95° East 407 468 31,000 -480 Level Chicago Center
09:13AM 42.8489 -86.5014 95° East 409 471 30,100 -1,020 Descending Chicago Center
09:14AM 42.8386 -86.3453 95° East 414 476 29,000 -1,080 Descending Chicago Center
09:15AM 42.8283 -86.1906 95° East 415 478 27,900 -1,080 Descending Chicago Center
09:16AM 42.8181 -86.0392 95° East 411 473 26,800 -1,260 Descending Chicago Center
09:17AM 42.8047 -85.8600 96° East 405 466 25,400 -900 Descending Chicago Center
09:18AM 42.7953 -85.7131 95° East 398 458 25,000 -780 Descending Chicago Center
09:19AM 42.7850 -85.5697 96° East 388 447 23,800 -1,260 Descending Chicago Center
09:20AM 42.7758 -85.4336 95° East 371 427 22,500 -1,320 Descending Chicago Center
09:21AM 42.7658 -85.3017 96° East 357 411 21,200 -780 Descending Chicago Center
09:22AM 42.7553 -85.1700 96° East 351 404 21,000 -120 Descending Chicago Center
09:23AM 42.7431 -85.0094 96° East 357 411 21,000 -120 Level Chicago Center
09:24AM 42.7325 -84.8744 96° East 359 413 20,800 -1,080 Descending Chicago Center
09:25AM 42.7214 -84.7397 96° East 360 414 18,900 -1,740 Descending Chicago Center
09:26AM 42.7167 -84.6092 93° East 350 403 17,300 -1,680 Descending Chicago Center
09:27AM 42.7128 -84.5539 95° East 355 409 16,500 -2,220 Descending Cleveland Center
09:28AM 42.7128 -84.4294 90° East 342 394 14,200 -2,460 Descending Cleveland Center
09:28AM 42.7153 -84.3561 87° East 325 374 12,800 -2,220 Descending Cleveland Center
09:29AM 42.7108 -84.2964 96° East 330 380 12,000 -1,980 Descending Cleveland Center
09:29AM 42.7108 -84.2369 90° East 311 358 10,800 -2,220 Descending Cleveland Center
09:30AM 42.7103 -84.1833 91° East 312 359 9,800 -2,280 Descending Cleveland Center
09:31AM 42.7106 -84.1125 90° East 296 341 8,300 -2,220 Descending Cleveland Center
09:31AM 42.7097 -84.0703 92° East 300 345 7,600 -2,040 Descending Cleveland Center
09:32AM 42.7031 -84.0078 98° East 276 318 6,300 -2,040 Descending Cleveland Center
09:32AM 42.6958 -83.9706 105° East 284 327 5,600 -2,220 Descending Cleveland Center
09:33AM 42.6833 -83.9019 104° East 272 313 4,100 -2,100 Descending Cleveland Center
09:33AM 42.6758 -83.8706 108° East 277 319 3,500 -1,140 Descending Cleveland Center
09:34AM 42.6653 -83.8050 102° East 258 297 3,000 -540 Descending Cleveland Center
09:34AM 42.6597 -83.7767 105° East 264 304 3,000  Level Cleveland Center
09:35AM 42.6575 -83.7114 93° East 247 284 3,000  Level Cleveland Center
09:35AM 42.6561 -83.6861 94° East 252 290 3,000  Level Cleveland Center